createdAt,value
2022-10-18T00:00:22.371Z,3.65
2022-10-18T00:02:49.533Z,4.32
2022-10-18T00:05:16.674Z,5.65
2022-10-18T00:07:43.851Z,4.78
2022-10-18T00:10:11.483Z,4.80
2022-10-18T00:12:38.698Z,5.32
2022-10-18T00:15:06.964Z,4.53
2022-10-18T00:17:37.760Z,4.20
2022-10-18T00:20:05.563Z,4.57
2022-10-18T00:22:34.605Z,4.93
2022-10-18T00:25:01.771Z,3.90
2022-10-18T00:27:31.790Z,3.95
2022-10-18T00:29:58.932Z,4.53
2022-10-18T00:32:26.456Z,4.03
2022-10-18T00:34:53.608Z,4.22
2022-10-18T00:37:20.862Z,3.78
2022-10-18T00:39:48.041Z,4.20
2022-10-18T00:42:19.517Z,4.63
2022-10-18T00:44:46.642Z,4.20
2022-10-18T00:47:15.223Z,4.55
2022-10-18T00:49:47.728Z,4.47
2022-10-18T00:52:20.339Z,4.97
2022-10-18T00:54:48.204Z,4.38
2022-10-18T00:57:15.871Z,4.18
2022-10-18T00:59:43.744Z,4.40
2022-10-18T01:02:11.245Z,4.95
2022-10-18T01:04:38.490Z,6.18
2022-10-18T01:07:08.818Z,5.32
2022-10-18T01:09:39.014Z,4.47
2022-10-18T01:12:28.880Z,5.18
2022-10-18T01:15:05.102Z,6.13
2022-10-18T01:17:47.238Z,5.13
2022-10-18T01:20:29.431Z,5.07
2022-10-18T01:22:59.845Z,4.05
2022-10-18T01:25:32.858Z,6.57
2022-10-18T01:28:09.108Z,4.70
2022-10-18T01:30:42.017Z,4.10
2022-10-18T01:33:18.324Z,4.40
2022-10-18T01:35:49.955Z,4.05
2022-10-18T01:38:18.167Z,5.45
2022-10-18T01:40:47.238Z,4.60
2022-10-18T01:43:15.461Z,4.45
2022-10-18T01:45:42.767Z,4.28
2022-10-18T01:48:11.402Z,3.97
2022-10-18T01:50:38.581Z,3.95
2022-10-18T01:53:05.966Z,4.88
2022-10-18T01:55:39.909Z,3.80
2022-10-18T01:58:14.249Z,4.50
2022-10-18T02:00:42.464Z,4.85
2022-10-18T02:03:12.369Z,5.28
2022-10-18T02:05:40.308Z,5.70
2022-10-18T02:08:22.087Z,4.50
2022-10-18T02:10:51.882Z,5.05
2022-10-18T02:13:21.299Z,4.53
2022-10-18T02:15:50.627Z,5.18
2022-10-18T02:18:25.513Z,4.38
2022-10-18T02:20:52.628Z,4.80
2022-10-18T02:23:22.070Z,5.35
2022-10-18T02:25:49.368Z,5.72
2022-10-18T02:28:16.815Z,4.75
2022-10-18T02:30:58.584Z,4.70
2022-10-18T02:33:31.357Z,5.63
2022-10-18T02:36:01.803Z,5.22
2022-10-18T02:38:29.571Z,5.32
2022-10-18T02:40:56.757Z,6.97
2022-10-18T02:43:24.999Z,5.88
2022-10-18T02:45:52.244Z,6.10
2022-10-18T02:48:19.483Z,6.28
2022-10-18T02:50:46.606Z,5.22
2022-10-18T02:53:13.793Z,6.90
2022-10-18T02:55:40.953Z,8.38
2022-10-18T02:58:08.078Z,7.28
2022-10-18T03:00:35.226Z,5.40
2022-10-18T03:03:02.452Z,5.65
2022-10-18T03:05:29.603Z,6.70
2022-10-18T03:07:59.821Z,6.10
2022-10-18T03:10:28.178Z,7.40
2022-10-18T03:12:55.319Z,6.90
2022-10-18T03:15:22.425Z,7.82
2022-10-18T03:17:49.584Z,6.30
2022-10-18T03:20:16.794Z,7.38
2022-10-18T03:22:43.906Z,7.50
2022-10-18T03:25:11.510Z,8.05
2022-10-18T03:27:38.632Z,8.27
2022-10-18T03:30:05.938Z,6.70
2022-10-18T03:32:33.347Z,7.45
2022-10-18T03:35:00.681Z,7.20
2022-10-18T03:37:27.881Z,7.85
2022-10-18T03:39:55.056Z,9.05
2022-10-18T03:42:22.268Z,8.45
2022-10-18T03:44:49.431Z,7.72
2022-10-18T03:47:16.622Z,8.50
2022-10-18T03:49:43.851Z,9.05
2022-10-18T03:52:11.046Z,10.38
2022-10-18T03:54:38.142Z,8.93
2022-10-18T03:57:05.292Z,11.15
2022-10-18T03:59:32.451Z,10.10
2022-10-18T04:01:59.676Z,11.25
2022-10-18T04:04:28.456Z,10.02
2022-10-18T04:06:55.664Z,9.52
2022-10-18T04:09:22.779Z,10.88
2022-10-18T04:11:53.072Z,10.02
2022-10-18T04:14:21.401Z,10.30
2022-10-18T04:16:48.624Z,10.15
2022-10-18T04:19:15.828Z,11.75
2022-10-18T04:21:44.249Z,10.85
2022-10-18T04:24:11.549Z,12.70
2022-10-18T04:26:38.710Z,14.23
2022-10-18T04:29:05.971Z,11.35
2022-10-18T04:31:33.174Z,12.70
2022-10-18T04:34:00.322Z,13.07
2022-10-18T04:36:27.411Z,13.02
2022-10-18T04:38:54.543Z,14.60
2022-10-18T04:41:21.735Z,14.25
2022-10-18T04:43:49.515Z,15.38
2022-10-18T04:46:16.701Z,12.05
2022-10-18T04:48:43.936Z,16.27
2022-10-18T04:51:11.089Z,15.45
2022-10-18T04:53:38.288Z,13.68
2022-10-18T04:56:05.538Z,20.40
2022-10-18T04:58:33.243Z,14.35
2022-10-18T05:01:00.386Z,14.50
2022-10-18T05:03:27.526Z,14.68
2022-10-18T05:06:01.727Z,15.15
2022-10-18T05:08:29.596Z,16.17
2022-10-18T05:10:56.932Z,16.45
2022-10-18T05:13:24.162Z,15.82
2022-10-18T05:15:51.373Z,15.10
2022-10-18T05:18:18.860Z,14.10
2022-10-18T05:20:46.752Z,14.57
2022-10-18T05:23:13.936Z,16.88
2022-10-18T05:25:43.972Z,13.98
2022-10-18T05:28:34.738Z,16.38
2022-10-18T05:31:02.647Z,15.88
2022-10-18T05:33:30.384Z,25.05
2022-10-18T05:35:57.781Z,15.68
2022-10-18T05:38:25.076Z,15.32
2022-10-18T05:40:52.417Z,16.42
2022-10-18T05:43:19.761Z,15.98
2022-10-18T05:45:52.665Z,16.65
2022-10-18T05:48:19.955Z,15.65
2022-10-18T05:50:47.132Z,17.90
2022-10-18T05:53:35.298Z,14.93
2022-10-18T05:56:04.074Z,14.55
2022-10-18T05:58:30.922Z,16.92
2022-10-18T06:01:01.966Z,17.83
2022-10-18T06:03:30.870Z,16.35
2022-10-18T06:06:07.328Z,15.50
2022-10-18T06:08:34.463Z,15.98
2022-10-18T06:11:10.157Z,16.63
2022-10-18T06:13:55.155Z,69.90
2022-10-18T06:16:22.929Z,20.73
2022-10-18T06:18:51.686Z,15.05
2022-10-18T06:21:19.536Z,15.80
2022-10-18T06:23:51.110Z,15.70
2022-10-18T06:26:17.927Z,16.30
2022-10-18T06:28:44.861Z,16.52
2022-10-18T06:31:12.908Z,17.52
2022-10-18T06:33:39.722Z,17.67
2022-10-18T06:36:10.742Z,16.85
2022-10-18T06:38:37.547Z,16.95
2022-10-18T06:41:05.752Z,17.55
2022-10-18T06:43:32.657Z,16.08
2022-10-18T06:46:01.900Z,17.80
2022-10-18T06:48:28.896Z,20.42
2022-10-18T06:50:58.306Z,19.70
2022-10-18T06:53:26.449Z,18.27
2022-10-18T06:55:58.586Z,18.35
2022-10-18T06:58:25.356Z,19.40
2022-10-18T07:00:52.181Z,17.17
2022-10-18T07:03:19.148Z,20.52
2022-10-18T07:05:45.948Z,20.58
2022-10-18T07:08:12.733Z,19.85
2022-10-18T07:10:39.558Z,20.40
2022-10-18T07:13:32.580Z,19.70
2022-10-18T07:16:06.011Z,21.38
2022-10-18T07:18:37.620Z,20.05
2022-10-18T07:21:06.351Z,24.00
2022-10-18T07:23:37.964Z,24.23
2022-10-18T07:26:12.534Z,19.75
2022-10-18T07:28:39.525Z,21.30
2022-10-18T07:31:08.611Z,24.75
2022-10-18T07:33:37.888Z,25.25
2022-10-18T07:36:07.719Z,24.48
2022-10-18T07:38:35.183Z,24.45
2022-10-18T07:41:03.847Z,23.13
2022-10-18T07:43:30.956Z,24.30
2022-10-18T07:46:00.511Z,22.48
2022-10-18T07:48:27.940Z,21.77
2022-10-18T07:50:55.079Z,22.58
2022-10-18T07:53:21.835Z,23.00
2022-10-18T07:55:48.673Z,25.10
2022-10-18T07:58:15.461Z,25.70
2022-10-18T08:00:42.279Z,25.63
2022-10-18T08:03:09.080Z,25.35
2022-10-18T08:05:35.873Z,27.27
2022-10-18T08:08:05.668Z,27.88
2022-10-18T08:10:35.804Z,24.60
2022-10-18T08:13:05.654Z,28.20
2022-10-18T08:15:32.436Z,31.20
2022-10-18T08:17:59.216Z,29.85
2022-10-18T08:20:30.804Z,29.10
2022-10-18T08:23:00.404Z,30.83
2022-10-18T08:25:28.426Z,31.23
2022-10-18T08:27:55.339Z,30.65
2022-10-18T08:30:23.943Z,31.20
2022-10-18T08:32:50.884Z,31.58
2022-10-18T08:35:18.641Z,35.38
2022-10-18T08:37:45.501Z,33.08
2022-10-18T08:40:15.987Z,34.70
2022-10-18T08:43:12.910Z,34.13
2022-10-18T08:45:43.219Z,59.78
2022-10-18T08:48:34.997Z,47.63
2022-10-18T08:51:05.164Z,49.42
2022-10-18T08:53:49.168Z,41.22
2022-10-18T08:56:21.535Z,43.45
2022-10-18T08:58:51.085Z,39.75
2022-10-18T09:01:45.575Z,39.58
2022-10-18T09:04:24.419Z,37.13
2022-10-18T09:07:31.526Z,35.38
2022-10-18T09:10:18.368Z,37.45
2022-10-18T09:12:57.094Z,34.70
2022-10-18T09:15:38.874Z,35.72
2022-10-18T09:18:24.507Z,30.73
2022-10-18T09:20:59.899Z,30.48
2022-10-18T09:23:44.042Z,29.70
2022-10-18T09:26:14.246Z,28.48
2022-10-18T09:28:46.955Z,28.60
2022-10-18T09:31:52.656Z,28.33
2022-10-18T09:34:37.766Z,28.63
2022-10-18T09:37:10.662Z,34.88
2022-10-18T09:39:39.068Z,34.78
2022-10-18T09:42:16.544Z,39.28
2022-10-18T09:44:49.384Z,33.83
2022-10-18T09:47:26.497Z,31.85
2022-10-18T09:50:15.525Z,30.17
2022-10-18T09:52:53.030Z,29.70
2022-10-18T09:55:25.076Z,30.50
2022-10-18T09:57:56.482Z,27.65
2022-10-18T10:00:29.624Z,28.73
2022-10-18T10:02:57.018Z,26.77
2022-10-18T10:05:23.765Z,29.40
2022-10-18T10:07:59.499Z,22.50
2022-10-18T10:10:30.666Z,21.27
2022-10-18T10:13:22.768Z,21.55
2022-10-18T10:16:01.035Z,21.98
2022-10-18T10:18:30.209Z,25.83
2022-10-18T10:21:05.638Z,23.55
2022-10-18T10:23:50.441Z,25.63
2022-10-18T10:26:34.148Z,25.52
2022-10-18T10:29:01.341Z,23.90
2022-10-18T10:31:32.687Z,49.65
2022-10-18T10:34:02.545Z,28.92
2022-10-18T10:36:30.544Z,22.95
2022-10-18T10:39:16.197Z,22.27
2022-10-18T10:41:45.477Z,20.63
2022-10-18T10:44:18.191Z,21.73
2022-10-18T10:46:45.697Z,21.35
2022-10-18T10:49:41.232Z,18.20
2022-10-18T10:52:27.231Z,18.58
2022-10-18T10:57:47.391Z,17.85
2022-10-18T11:00:52.849Z,16.42
2022-10-18T11:03:29.243Z,18.70
2022-10-18T11:05:58.778Z,17.38
2022-10-18T11:08:35.912Z,16.77
2022-10-18T11:11:23.179Z,16.92
2022-10-18T11:14:07.243Z,16.45
2022-10-18T11:16:49.743Z,15.05
2022-10-18T11:19:30.571Z,18.60
2022-10-18T11:21:58.139Z,17.60
2022-10-18T11:24:25.356Z,17.25
2022-10-18T11:27:10.774Z,17.60
2022-10-18T11:29:45.662Z,15.95
2022-10-18T11:32:18.921Z,17.27
2022-10-18T11:34:46.045Z,13.15
2022-10-18T11:37:36.070Z,12.70
2022-10-18T11:40:05.529Z,15.30
2022-10-18T11:42:39.685Z,11.80
2022-10-18T11:45:07.170Z,11.27
2022-10-18T11:47:34.618Z,9.48
2022-10-18T11:50:07.837Z,9.35
2022-10-18T11:52:38.099Z,8.80
2022-10-18T11:55:15.948Z,10.43
2022-10-18T11:58:01.294Z,7.95
2022-10-18T12:01:03.505Z,8.15
2022-10-18T12:03:39.022Z,7.45
2022-10-18T12:06:16.747Z,21.27
2022-10-18T12:08:49.168Z,7.25
2022-10-18T12:11:20.703Z,7.22
2022-10-18T12:13:52.335Z,6.35
2022-10-18T12:16:38.958Z,7.13
2022-10-18T12:19:36.857Z,6.35
2022-10-18T12:22:14.859Z,6.13
2022-10-18T12:24:42.981Z,7.05
2022-10-18T12:27:12.489Z,7.13
2022-10-18T12:29:39.733Z,7.93
2022-10-18T12:32:11.282Z,7.43
2022-10-18T12:34:53.390Z,7.43
2022-10-18T12:37:20.588Z,8.15
2022-10-18T12:42:44.822Z,9.20
2022-10-18T12:45:33.231Z,7.05
2022-10-18T12:48:05.843Z,7.53
2022-10-18T12:50:35.830Z,6.97
2022-10-18T12:53:18.150Z,7.93
2022-10-18T12:55:47.109Z,6.10
2022-10-18T12:58:14.727Z,7.18
2022-10-18T13:00:41.865Z,8.52
2022-10-18T13:03:18.154Z,8.13
2022-10-18T13:05:53.492Z,9.85
2022-10-18T13:08:31.595Z,9.40
2022-10-18T13:11:10.837Z,9.77
2022-10-18T13:13:40.654Z,7.78
2022-10-18T13:16:15.609Z,8.48
2022-10-18T13:18:53.347Z,6.32
2022-10-18T13:21:29.866Z,5.60
2022-10-18T13:24:16.095Z,5.47
2022-10-18T13:26:59.271Z,6.53
2022-10-18T13:29:54.783Z,4.82
2022-10-18T13:32:28.871Z,5.78
2022-10-18T13:34:56.113Z,5.47
2022-10-18T13:37:26.643Z,4.75
2022-10-18T13:40:13.781Z,4.43
2022-10-18T13:42:40.644Z,5.50
2022-10-18T13:45:32.217Z,5.65
2022-10-18T13:48:31.307Z,4.93
2022-10-18T13:51:11.326Z,3.55
2022-10-18T13:54:06.531Z,3.10
2022-10-18T13:57:12.184Z,3.10
2022-10-18T13:59:57.251Z,3.97
2022-10-18T14:02:51.454Z,2.95
2022-10-18T14:05:38.046Z,3.72
2022-10-18T14:08:20.558Z,3.67
2022-10-18T14:11:01.335Z,3.28
2022-10-18T14:13:32.235Z,3.45
2022-10-18T14:16:04.854Z,3.63
2022-10-18T14:18:33.787Z,4.78
2022-10-18T14:21:13.394Z,3.97
2022-10-18T14:23:44.681Z,2.92
2022-10-18T14:26:16.421Z,3.22
2022-10-18T14:29:00.335Z,2.95
2022-10-18T14:31:27.864Z,2.90
2022-10-18T14:33:57.890Z,3.63
2022-10-18T14:36:26.474Z,3.22
2022-10-18T14:39:05.342Z,3.63
2022-10-18T14:41:33.603Z,3.95
2022-10-18T14:44:13.000Z,3.53
2022-10-18T14:46:47.570Z,5.97
2022-10-18T14:49:15.510Z,3.35
2022-10-18T14:51:43.944Z,3.33
2022-10-18T14:56:48.263Z,4.07
2022-10-18T14:59:22.872Z,2.90
2022-10-18T15:01:56.082Z,3.58
2022-10-18T15:04:27.786Z,6.75
2022-10-18T15:06:56.143Z,6.13
2022-10-18T15:09:24.588Z,3.72
2022-10-18T15:11:54.752Z,4.57
2022-10-18T15:14:22.595Z,4.18
2022-10-18T15:16:51.249Z,3.58
2022-10-18T15:19:18.395Z,3.50
2022-10-18T15:25:03.729Z,2.95
2022-10-18T15:27:32.733Z,3.08
2022-10-18T15:30:06.093Z,3.08
2022-10-18T15:32:33.674Z,2.80
2022-10-18T15:35:08.541Z,2.58
2022-10-18T15:37:42.893Z,2.83
2022-10-18T15:40:36.277Z,2.72
2022-10-18T15:43:06.061Z,2.65
2022-10-18T15:45:35.184Z,2.72
2022-10-18T15:48:12.100Z,2.75
2022-10-18T15:50:44.246Z,2.70
2022-10-18T15:53:23.916Z,2.47
2022-10-18T15:55:52.522Z,2.60
2022-10-18T15:58:24.240Z,2.60
2022-10-18T16:00:52.134Z,2.90
2022-10-18T16:03:21.729Z,2.35
2022-10-18T16:05:48.982Z,4.82
2022-10-18T16:08:20.034Z,4.95
2022-10-18T16:10:47.174Z,4.15
2022-10-18T16:13:14.399Z,2.85
2022-10-18T16:15:41.622Z,4.65
2022-10-18T16:18:10.732Z,4.28
2022-10-18T16:20:38.068Z,4.20
2022-10-18T16:23:11.031Z,2.80
2022-10-18T16:25:38.164Z,4.20
2022-10-18T16:28:05.449Z,3.05
2022-10-18T16:30:37.912Z,2.83
2022-10-18T16:33:07.497Z,2.83
2022-10-18T16:35:35.757Z,3.67
2022-10-18T16:38:03.177Z,3.15
2022-10-18T16:40:30.379Z,3.22
2022-10-18T16:42:57.642Z,4.00
2022-10-18T16:45:24.867Z,3.70
2022-10-18T16:47:52.107Z,3.28
2022-10-18T16:50:21.872Z,3.90
2022-10-18T16:52:49.072Z,4.65
2022-10-18T16:55:21.318Z,4.88
2022-10-18T16:57:50.310Z,5.40
2022-10-18T17:00:21.479Z,5.25
2022-10-18T17:02:49.333Z,4.68
2022-10-18T17:05:17.346Z,10.02
2022-10-18T17:07:45.627Z,6.65
2022-10-18T17:10:19.243Z,4.63
2022-10-18T17:12:46.623Z,4.60
2022-10-18T17:15:13.650Z,3.78
2022-10-18T17:17:40.529Z,3.50
2022-10-18T17:20:08.368Z,3.60
2022-10-18T17:22:35.356Z,3.95
2022-10-18T17:25:02.194Z,4.90
2022-10-18T17:27:29.001Z,4.07
2022-10-18T17:29:55.930Z,3.50
2022-10-18T17:32:22.713Z,3.90
2022-10-18T17:34:49.759Z,4.88
2022-10-18T17:37:16.682Z,7.43
2022-10-18T17:39:43.468Z,5.03
2022-10-18T17:42:10.366Z,7.80
2022-10-18T17:44:37.272Z,25.00
2022-10-18T17:47:04.431Z,15.57
2022-10-18T17:49:31.362Z,7.20
2022-10-18T17:52:01.098Z,6.03
2022-10-18T17:54:29.970Z,7.38
2022-10-18T17:56:56.822Z,6.38
2022-10-18T17:59:23.628Z,6.93
2022-10-18T18:01:50.412Z,7.13
2022-10-18T18:04:17.328Z,5.85
2022-10-18T18:06:45.450Z,6.88
2022-10-18T18:09:16.780Z,6.40
2022-10-18T18:11:44.794Z,6.60
2022-10-18T18:14:13.722Z,9.02
2022-10-18T18:16:42.125Z,6.70
2022-10-18T18:19:10.282Z,6.90
2022-10-18T18:21:40.865Z,7.25
2022-10-18T18:24:10.075Z,6.90
2022-10-18T18:26:38.090Z,7.97
2022-10-18T18:29:06.489Z,7.22
2022-10-18T18:31:38.869Z,9.18
2022-10-18T18:34:11.132Z,8.27
2022-10-18T18:36:39.064Z,8.23
2022-10-18T18:39:06.425Z,5.18
2022-10-18T18:41:33.742Z,7.57
2022-10-18T18:44:02.505Z,15.52
2022-10-18T18:46:33.712Z,7.95
2022-10-18T18:49:00.589Z,7.05
2022-10-18T18:51:27.703Z,7.30
2022-10-18T18:53:54.891Z,7.15
2022-10-18T18:56:23.967Z,7.15
2022-10-18T18:58:52.440Z,8.52
2022-10-18T19:01:25.273Z,6.63
2022-10-18T19:03:54.023Z,6.15
2022-10-18T19:06:23.725Z,8.48
2022-10-18T19:08:54.184Z,8.40
2022-10-18T19:11:22.628Z,6.47
2022-10-18T19:13:50.202Z,5.83
2022-10-18T19:16:20.600Z,7.17
2022-10-18T19:18:58.320Z,7.18
2022-10-18T19:21:26.177Z,6.30
2022-10-18T19:23:53.578Z,5.60
2022-10-18T19:26:26.520Z,5.23
2022-10-18T19:28:54.022Z,6.00
2022-10-18T19:31:21.503Z,5.60
2022-10-18T19:33:59.368Z,6.47
2022-10-18T19:36:27.018Z,6.90
2022-10-18T19:38:54.183Z,5.20
2022-10-18T19:41:21.684Z,5.57
2022-10-18T19:43:48.927Z,5.37
2022-10-18T19:46:16.246Z,4.80
2022-10-18T19:48:43.610Z,5.90
2022-10-18T19:51:12.256Z,7.03
2022-10-18T19:53:42.813Z,5.90
2022-10-18T19:56:10.481Z,5.73
2022-10-18T19:58:37.812Z,4.97
2022-10-18T20:01:05.147Z,5.83
2022-10-18T20:03:32.349Z,4.30
2022-10-18T20:06:00.553Z,5.40
2022-10-18T20:08:29.140Z,4.73
2022-10-18T20:10:57.962Z,7.70
2022-10-18T20:13:25.168Z,6.93
2022-10-18T20:15:52.657Z,4.17
2022-10-18T20:18:20.469Z,4.20
2022-10-18T20:20:48.537Z,3.73
2022-10-18T20:23:18.906Z,3.97
2022-10-18T20:26:02.192Z,4.73
2022-10-18T20:28:29.520Z,3.90
2022-10-18T20:31:16.967Z,5.30
2022-10-18T20:33:44.616Z,3.90
2022-10-18T20:36:13.091Z,3.93
2022-10-18T20:38:40.924Z,3.83
2022-10-18T20:41:09.596Z,4.57
2022-10-18T20:43:37.054Z,4.47
2022-10-18T20:46:04.603Z,3.50
2022-10-18T20:48:32.264Z,3.23
2022-10-18T20:51:03.790Z,3.70
2022-10-18T20:53:30.937Z,3.60
2022-10-18T20:56:08.473Z,3.67
2022-10-18T20:58:36.642Z,3.03
2022-10-18T21:01:07.100Z,3.87
2022-10-18T21:03:38.569Z,4.33
2022-10-18T21:06:12.500Z,4.13
2022-10-18T21:08:39.870Z,3.63
2022-10-18T21:11:07.422Z,3.57
2022-10-18T21:13:34.669Z,2.60
2022-10-18T21:16:02.523Z,3.47
2022-10-18T21:18:30.751Z,3.30
2022-10-18T21:21:07.237Z,3.47
2022-10-18T21:23:34.709Z,3.20
2022-10-18T21:26:01.939Z,3.10
2022-10-18T21:28:29.258Z,2.93
2022-10-18T21:30:57.924Z,3.47
2022-10-18T21:33:25.107Z,3.43
2022-10-18T21:35:51.845Z,3.93
2022-10-18T21:38:18.654Z,4.03
2022-10-18T21:40:45.395Z,3.70
2022-10-18T21:43:12.261Z,4.27
2022-10-18T21:45:39.067Z,3.47
2022-10-18T21:48:06.339Z,3.97
2022-10-18T21:50:34.606Z,3.37
2022-10-18T21:53:01.799Z,3.90
2022-10-18T21:55:29.003Z,4.70
2022-10-18T21:57:57.448Z,3.93
2022-10-18T22:00:24.640Z,3.30
2022-10-18T22:03:06.199Z,3.23
2022-10-18T22:05:33.421Z,3.77
2022-10-18T22:08:00.598Z,3.93
2022-10-18T22:10:27.811Z,3.93
2022-10-18T22:12:54.942Z,3.50
2022-10-18T22:15:22.097Z,3.77
2022-10-18T22:17:49.431Z,3.20
2022-10-18T22:20:16.673Z,3.93
2022-10-18T22:22:46.744Z,4.03
2022-10-18T22:25:14.768Z,3.30
2022-10-18T22:27:41.842Z,6.10
2022-10-18T22:30:09.389Z,4.67
2022-10-18T22:32:36.137Z,4.13
2022-10-18T22:35:02.967Z,3.47
2022-10-18T22:37:29.918Z,3.87
2022-10-18T22:39:56.726Z,3.30
2022-10-18T22:42:23.593Z,3.37
2022-10-18T22:44:50.376Z,3.60
2022-10-18T22:47:17.284Z,3.80
2022-10-18T22:49:44.529Z,3.47
2022-10-18T22:52:11.677Z,3.80
2022-10-18T22:54:38.935Z,4.97
2022-10-18T22:57:06.108Z,4.37
2022-10-18T22:59:34.521Z,4.33
2022-10-18T23:02:01.783Z,4.33
2022-10-18T23:04:29.031Z,3.50
2022-10-18T23:06:56.212Z,7.03
2022-10-18T23:09:23.369Z,6.17
2022-10-18T23:11:51.020Z,3.87
2022-10-18T23:14:18.254Z,4.57
2022-10-18T23:16:45.412Z,3.50
2022-10-18T23:19:15.358Z,3.90
2022-10-18T23:21:42.508Z,3.90
2022-10-18T23:24:09.877Z,4.23
2022-10-18T23:26:37.058Z,4.67
2022-10-18T23:29:04.333Z,4.30
2022-10-18T23:31:32.990Z,4.30
2022-10-18T23:34:04.225Z,4.27
2022-10-18T23:36:31.869Z,6.03
2022-10-18T23:38:59.431Z,4.10
2022-10-18T23:41:26.693Z,4.50
2022-10-18T23:43:55.916Z,4.73
2022-10-18T23:46:23.126Z,4.10
2022-10-18T23:48:50.505Z,4.03
2022-10-18T23:51:18.168Z,4.27
2022-10-18T23:53:45.565Z,4.47
2022-10-18T23:56:14.286Z,4.63
2022-10-18T23:58:41.828Z,4.43
